sensor_id;sensor_type;location;lat;lon;timestamp;P1;durP1;ratioP1;P2;durP2;ratioP2
44228;SDS011;29904;51.058;5.378;2023-05-07T00:00:58;5.53;;;4.40;;
44228;SDS011;29904;51.058;5.378;2023-05-07T00:03:24;5.50;;;4.40;;
44228;SDS011;29904;51.058;5.378;2023-05-07T00:05:51;5.05;;;4.38;;
44228;SDS011;29904;51.058;5.378;2023-05-07T00:08:18;5.13;;;3.92;;
44228;SDS011;29904;51.058;5.378;2023-05-07T00:10:44;5.18;;;4.10;;
44228;SDS011;29904;51.058;5.378;2023-05-07T00:13:12;5.30;;;4.10;;
44228;SDS011;29904;51.058;5.378;2023-05-07T00:15:37;5.63;;;4.60;;
44228;SDS011;29904;51.058;5.378;2023-05-07T00:18:03;5.72;;;4.13;;
44228;SDS011;29904;51.058;5.378;2023-05-07T00:20:29;5.50;;;4.22;;
44228;SDS011;29904;51.058;5.378;2023-05-07T00:22:55;5.90;;;4.00;;
44228;SDS011;29904;51.058;5.378;2023-05-07T00:25:22;5.95;;;4.53;;
44228;SDS011;29904;51.058;5.378;2023-05-07T00:27:48;5.78;;;4.53;;
44228;SDS011;29904;51.058;5.378;2023-05-07T00:30:14;5.07;;;4.20;;
44228;SDS011;29904;51.058;5.378;2023-05-07T00:32:40;5.20;;;4.10;;
44228;SDS011;29904;51.058;5.378;2023-05-07T00:35:06;6.15;;;4.82;;
44228;SDS011;29904;51.058;5.378;2023-05-07T00:37:32;6.13;;;4.57;;
44228;SDS011;29904;51.058;5.378;2023-05-07T00:40:00;6.40;;;4.32;;
44228;SDS011;29904;51.058;5.378;2023-05-07T00:42:28;6.40;;;4.93;;
44228;SDS011;29904;51.058;5.378;2023-05-07T00:44:54;6.88;;;4.72;;
44228;SDS011;29904;51.058;5.378;2023-05-07T00:47:20;6.45;;;4.78;;
44228;SDS011;29904;51.058;5.378;2023-05-07T00:49:45;6.68;;;5.43;;
44228;SDS011;29904;51.058;5.378;2023-05-07T00:52:13;6.17;;;5.00;;
44228;SDS011;29904;51.058;5.378;2023-05-07T00:54:41;7.07;;;5.57;;
44228;SDS011;29904;51.058;5.378;2023-05-07T00:57:07;7.13;;;5.25;;
44228;SDS011;29904;51.058;5.378;2023-05-07T00:59:36;6.60;;;4.97;;
44228;SDS011;29904;51.058;5.378;2023-05-07T01:02:02;6.78;;;5.25;;
44228;SDS011;29904;51.058;5.378;2023-05-07T01:04:28;6.20;;;4.80;;
44228;SDS011;29904;51.058;5.378;2023-05-07T01:06:55;7.40;;;5.65;;
44228;SDS011;29904;51.058;5.378;2023-05-07T01:09:23;6.65;;;4.90;;
44228;SDS011;29904;51.058;5.378;2023-05-07T01:11:50;5.72;;;4.70;;
44228;SDS011;29904;51.058;5.378;2023-05-07T01:14:16;7.20;;;5.07;;
44228;SDS011;29904;51.058;5.378;2023-05-07T01:16:43;6.85;;;4.82;;
44228;SDS011;29904;51.058;5.378;2023-05-07T01:19:09;6.85;;;5.18;;
44228;SDS011;29904;51.058;5.378;2023-05-07T01:21:38;7.50;;;4.88;;
44228;SDS011;29904;51.058;5.378;2023-05-07T01:24:10;6.85;;;4.88;;
44228;SDS011;29904;51.058;5.378;2023-05-07T01:26:39;6.13;;;4.43;;
44228;SDS011;29904;51.058;5.378;2023-05-07T01:29:05;5.90;;;4.50;;
44228;SDS011;29904;51.058;5.378;2023-05-07T01:31:31;9.40;;;4.90;;
44228;SDS011;29904;51.058;5.378;2023-05-07T01:33:59;6.82;;;4.60;;
44228;SDS011;29904;51.058;5.378;2023-05-07T01:36:26;6.57;;;4.72;;
44228;SDS011;29904;51.058;5.378;2023-05-07T01:38:55;5.70;;;4.60;;
44228;SDS011;29904;51.058;5.378;2023-05-07T01:41:23;5.32;;;4.57;;
44228;SDS011;29904;51.058;5.378;2023-05-07T01:43:49;6.38;;;4.93;;
44228;SDS011;29904;51.058;5.378;2023-05-07T01:46:17;6.05;;;4.78;;
44228;SDS011;29904;51.058;5.378;2023-05-07T01:48:45;6.50;;;4.88;;
44228;SDS011;29904;51.058;5.378;2023-05-07T01:51:11;6.37;;;4.63;;
44228;SDS011;29904;51.058;5.378;2023-05-07T01:53:38;6.55;;;4.60;;
44228;SDS011;29904;51.058;5.378;2023-05-07T01:56:06;6.20;;;4.43;;
44228;SDS011;29904;51.058;5.378;2023-05-07T01:58:32;7.17;;;4.70;;
44228;SDS011;29904;51.058;5.378;2023-05-07T02:00:58;6.80;;;4.60;;
44228;SDS011;29904;51.058;5.378;2023-05-07T02:03:24;4.80;;;4.05;;
44228;SDS011;29904;51.058;5.378;2023-05-07T02:05:50;6.00;;;3.97;;
44228;SDS011;29904;51.058;5.378;2023-05-07T02:08:16;6.83;;;4.37;;
44228;SDS011;29904;51.058;5.378;2023-05-07T02:10:42;5.28;;;4.03;;
44228;SDS011;29904;51.058;5.378;2023-05-07T02:13:08;6.85;;;4.45;;
44228;SDS011;29904;51.058;5.378;2023-05-07T02:15:33;5.97;;;4.50;;
44228;SDS011;29904;51.058;5.378;2023-05-07T02:18:03;6.05;;;4.18;;
44228;SDS011;29904;51.058;5.378;2023-05-07T02:20:31;4.43;;;3.70;;
44228;SDS011;29904;51.058;5.378;2023-05-07T02:22:56;5.17;;;3.67;;
44228;SDS011;29904;51.058;5.378;2023-05-07T02:25:22;5.28;;;3.97;;
44228;SDS011;29904;51.058;5.378;2023-05-07T02:27:50;5.18;;;3.85;;
44228;SDS011;29904;51.058;5.378;2023-05-07T02:30:16;5.45;;;4.03;;
44228;SDS011;29904;51.058;5.378;2023-05-07T02:32:41;5.80;;;3.80;;
44228;SDS011;29904;51.058;5.378;2023-05-07T02:35:09;5.97;;;4.20;;
44228;SDS011;29904;51.058;5.378;2023-05-07T02:37:35;5.90;;;4.30;;
44228;SDS011;29904;51.058;5.378;2023-05-07T02:40:01;8.13;;;4.43;;
44228;SDS011;29904;51.058;5.378;2023-05-07T02:42:28;5.80;;;4.13;;
44228;SDS011;29904;51.058;5.378;2023-05-07T02:44:54;8.38;;;4.70;;
44228;SDS011;29904;51.058;5.378;2023-05-07T02:47:19;5.00;;;3.90;;
44228;SDS011;29904;51.058;5.378;2023-05-07T02:49:47;5.90;;;4.30;;
44228;SDS011;29904;51.058;5.378;2023-05-07T02:52:13;6.07;;;4.40;;
44228;SDS011;29904;51.058;5.378;2023-05-07T02:54:39;5.90;;;4.45;;
44228;SDS011;29904;51.058;5.378;2023-05-07T02:57:07;5.50;;;4.07;;
44228;SDS011;29904;51.058;5.378;2023-05-07T02:59:32;6.97;;;4.30;;
44228;SDS011;29904;51.058;5.378;2023-05-07T03:01:58;5.90;;;4.20;;
44228;SDS011;29904;51.058;5.378;2023-05-07T03:04:24;6.13;;;4.25;;
44228;SDS011;29904;51.058;5.378;2023-05-07T03:06:50;7.20;;;4.50;;
44228;SDS011;29904;51.058;5.378;2023-05-07T03:09:15;5.97;;;4.30;;
44228;SDS011;29904;51.058;5.378;2023-05-07T03:11:41;6.78;;;4.38;;
44228;SDS011;29904;51.058;5.378;2023-05-07T03:14:07;6.50;;;4.30;;
44228;SDS011;29904;51.058;5.378;2023-05-07T03:16:33;5.83;;;4.40;;
44228;SDS011;29904;51.058;5.378;2023-05-07T03:19:00;5.47;;;4.05;;
44228;SDS011;29904;51.058;5.378;2023-05-07T03:21:26;4.35;;;3.70;;
44228;SDS011;29904;51.058;5.378;2023-05-07T03:23:52;6.67;;;4.40;;
44228;SDS011;29904;51.058;5.378;2023-05-07T03:26:18;6.65;;;4.10;;
44228;SDS011;29904;51.058;5.378;2023-05-07T03:28:43;5.73;;;3.90;;
44228;SDS011;29904;51.058;5.378;2023-05-07T03:31:09;7.15;;;4.50;;
44228;SDS011;29904;51.058;5.378;2023-05-07T03:33:38;6.45;;;4.20;;
44228;SDS011;29904;51.058;5.378;2023-05-07T03:36:15;6.28;;;4.03;;
44228;SDS011;29904;51.058;5.378;2023-05-07T03:38:41;6.40;;;4.47;;
44228;SDS011;29904;51.058;5.378;2023-05-07T03:41:07;5.63;;;4.25;;
44228;SDS011;29904;51.058;5.378;2023-05-07T03:43:32;6.43;;;4.50;;
44228;SDS011;29904;51.058;5.378;2023-05-07T03:46:00;5.28;;;4.20;;
44228;SDS011;29904;51.058;5.378;2023-05-07T03:48:26;6.32;;;4.50;;
44228;SDS011;29904;51.058;5.378;2023-05-07T03:50:51;5.53;;;4.30;;
44228;SDS011;29904;51.058;5.378;2023-05-07T03:53:17;6.15;;;4.43;;
44228;SDS011;29904;51.058;5.378;2023-05-07T03:55:43;6.23;;;4.87;;
44228;SDS011;29904;51.058;5.378;2023-05-07T03:58:09;5.30;;;3.88;;
44228;SDS011;29904;51.058;5.378;2023-05-07T04:00:37;4.57;;;3.58;;
44228;SDS011;29904;51.058;5.378;2023-05-07T04:03:04;5.15;;;3.97;;
44228;SDS011;29904;51.058;5.378;2023-05-07T04:05:30;5.95;;;3.85;;
44228;SDS011;29904;51.058;5.378;2023-05-07T04:07:57;5.68;;;4.22;;
44228;SDS011;29904;51.058;5.378;2023-05-07T04:10:23;5.73;;;4.30;;
44228;SDS011;29904;51.058;5.378;2023-05-07T04:12:49;6.20;;;4.80;;
44228;SDS011;29904;51.058;5.378;2023-05-07T04:15:17;6.32;;;4.20;;
44228;SDS011;29904;51.058;5.378;2023-05-07T04:17:43;5.43;;;4.20;;
44228;SDS011;29904;51.058;5.378;2023-05-07T04:20:09;7.00;;;4.30;;
44228;SDS011;29904;51.058;5.378;2023-05-07T04:22:36;6.00;;;4.35;;
44228;SDS011;29904;51.058;5.378;2023-05-07T04:25:02;5.75;;;4.13;;
44228;SDS011;29904;51.058;5.378;2023-05-07T04:27:28;5.73;;;4.40;;
44228;SDS011;29904;51.058;5.378;2023-05-07T04:29:54;6.10;;;4.20;;
44228;SDS011;29904;51.058;5.378;2023-05-07T04:32:21;5.43;;;4.20;;
44228;SDS011;29904;51.058;5.378;2023-05-07T04:34:50;5.78;;;4.03;;
44228;SDS011;29904;51.058;5.378;2023-05-07T04:37:15;5.60;;;3.97;;
44228;SDS011;29904;51.058;5.378;2023-05-07T04:39:42;5.18;;;3.90;;
44228;SDS011;29904;51.058;5.378;2023-05-07T04:42:08;6.45;;;4.20;;
44228;SDS011;29904;51.058;5.378;2023-05-07T04:44:34;6.10;;;4.03;;
44228;SDS011;29904;51.058;5.378;2023-05-07T04:47:01;5.93;;;4.55;;
44228;SDS011;29904;51.058;5.378;2023-05-07T04:49:27;5.15;;;4.10;;
44228;SDS011;29904;51.058;5.378;2023-05-07T04:51:53;5.88;;;4.15;;
44228;SDS011;29904;51.058;5.378;2023-05-07T04:54:19;5.90;;;4.57;;
44228;SDS011;29904;51.058;5.378;2023-05-07T04:56:46;5.03;;;4.20;;
44228;SDS011;29904;51.058;5.378;2023-05-07T04:59:12;6.68;;;4.22;;
44228;SDS011;29904;51.058;5.378;2023-05-07T05:01:37;5.67;;;4.10;;
44228;SDS011;29904;51.058;5.378;2023-05-07T05:04:03;5.90;;;4.35;;
44228;SDS011;29904;51.058;5.378;2023-05-07T05:06:30;7.90;;;5.00;;
44228;SDS011;29904;51.058;5.378;2023-05-07T05:08:55;6.03;;;4.60;;
44228;SDS011;29904;51.058;5.378;2023-05-07T05:11:21;6.68;;;4.55;;
44228;SDS011;29904;51.058;5.378;2023-05-07T05:13:47;6.40;;;4.70;;
44228;SDS011;29904;51.058;5.378;2023-05-07T05:16:14;7.05;;;4.72;;
44228;SDS011;29904;51.058;5.378;2023-05-07T05:18:40;8.40;;;4.63;;
44228;SDS011;29904;51.058;5.378;2023-05-07T05:21:08;6.20;;;4.63;;
44228;SDS011;29904;51.058;5.378;2023-05-07T05:23:34;7.40;;;5.03;;
44228;SDS011;29904;51.058;5.378;2023-05-07T05:26:00;8.63;;;5.20;;
44228;SDS011;29904;51.058;5.378;2023-05-07T05:28:25;8.33;;;5.33;;
44228;SDS011;29904;51.058;5.378;2023-05-07T05:30:52;7.40;;;5.60;;
44228;SDS011;29904;51.058;5.378;2023-05-07T05:33:18;7.78;;;5.38;;
44228;SDS011;29904;51.058;5.378;2023-05-07T05:35:43;7.17;;;5.10;;
44228;SDS011;29904;51.058;5.378;2023-05-07T05:38:09;5.97;;;4.40;;
44228;SDS011;29904;51.058;5.378;2023-05-07T05:40:35;5.47;;;4.30;;
44228;SDS011;29904;51.058;5.378;2023-05-07T05:43:01;7.30;;;4.63;;
44228;SDS011;29904;51.058;5.378;2023-05-07T05:45:27;6.53;;;4.57;;
44228;SDS011;29904;51.058;5.378;2023-05-07T05:47:55;6.20;;;4.40;;
44228;SDS011;29904;51.058;5.378;2023-05-07T05:50:21;6.65;;;4.30;;
44228;SDS011;29904;51.058;5.378;2023-05-07T05:52:47;7.13;;;4.40;;
44228;SDS011;29904;51.058;5.378;2023-05-07T05:55:14;6.70;;;4.20;;
44228;SDS011;29904;51.058;5.378;2023-05-07T05:57:39;6.13;;;4.10;;
44228;SDS011;29904;51.058;5.378;2023-05-07T06:00:06;5.82;;;3.90;;
44228;SDS011;29904;51.058;5.378;2023-05-07T06:02:33;5.57;;;4.30;;
44228;SDS011;29904;51.058;5.378;2023-05-07T06:04:58;7.00;;;4.25;;
44228;SDS011;29904;51.058;5.378;2023-05-07T06:07:24;6.50;;;4.28;;
44228;SDS011;29904;51.058;5.378;2023-05-07T06:09:50;4.90;;;3.83;;
44228;SDS011;29904;51.058;5.378;2023-05-07T06:12:16;7.43;;;4.23;;
44228;SDS011;29904;51.058;5.378;2023-05-07T06:14:44;5.63;;;3.63;;
44228;SDS011;29904;51.058;5.378;2023-05-07T06:17:10;6.18;;;4.32;;
44228;SDS011;29904;51.058;5.378;2023-05-07T06:19:36;5.60;;;4.00;;
44228;SDS011;29904;51.058;5.378;2023-05-07T06:22:02;6.85;;;4.32;;
44228;SDS011;29904;51.058;5.378;2023-05-07T06:24:28;6.88;;;4.20;;
44228;SDS011;29904;51.058;5.378;2023-05-07T06:26:54;5.10;;;3.95;;
44228;SDS011;29904;51.058;5.378;2023-05-07T06:29:19;5.40;;;3.97;;
44228;SDS011;29904;51.058;5.378;2023-05-07T06:31:47;5.75;;;3.75;;
44228;SDS011;29904;51.058;5.378;2023-05-07T06:34:13;6.30;;;3.87;;
44228;SDS011;29904;51.058;5.378;2023-05-07T06:36:39;5.47;;;3.80;;
44228;SDS011;29904;51.058;5.378;2023-05-07T06:39:05;6.97;;;4.30;;
44228;SDS011;29904;51.058;5.378;2023-05-07T06:41:31;6.27;;;4.23;;
44228;SDS011;29904;51.058;5.378;2023-05-07T06:43:57;5.43;;;4.18;;
44228;SDS011;29904;51.058;5.378;2023-05-07T06:46:23;6.22;;;3.80;;
44228;SDS011;29904;51.058;5.378;2023-05-07T06:48:48;5.00;;;3.43;;
44228;SDS011;29904;51.058;5.378;2023-05-07T06:51:14;4.95;;;3.70;;
44228;SDS011;29904;51.058;5.378;2023-05-07T06:53:40;6.35;;;3.97;;
44228;SDS011;29904;51.058;5.378;2023-05-07T06:56:06;4.93;;;3.50;;
44228;SDS011;29904;51.058;5.378;2023-05-07T06:58:32;5.70;;;3.95;;
44228;SDS011;29904;51.058;5.378;2023-05-07T07:00:58;3.78;;;3.38;;
44228;SDS011;29904;51.058;5.378;2023-05-07T07:03:26;5.38;;;3.72;;
44228;SDS011;29904;51.058;5.378;2023-05-07T07:05:52;4.97;;;3.30;;
44228;SDS011;29904;51.058;5.378;2023-05-07T07:08:18;5.00;;;3.33;;
44228;SDS011;29904;51.058;5.378;2023-05-07T07:10:46;5.65;;;3.38;;
44228;SDS011;29904;51.058;5.378;2023-05-07T07:13:12;5.40;;;3.40;;
44228;SDS011;29904;51.058;5.378;2023-05-07T07:15:38;4.72;;;3.28;;
44228;SDS011;29904;51.058;5.378;2023-05-07T07:18:05;4.50;;;3.20;;
44228;SDS011;29904;51.058;5.378;2023-05-07T07:20:31;5.05;;;2.90;;
44228;SDS011;29904;51.058;5.378;2023-05-07T07:22:57;6.57;;;3.65;;
44228;SDS011;29904;51.058;5.378;2023-05-07T07:25:25;4.25;;;2.92;;
44228;SDS011;29904;51.058;5.378;2023-05-07T07:27:51;4.43;;;2.78;;
44228;SDS011;29904;51.058;5.378;2023-05-07T07:30:16;4.80;;;2.50;;
44228;SDS011;29904;51.058;5.378;2023-05-07T07:32:43;3.40;;;2.20;;
44228;SDS011;29904;51.058;5.378;2023-05-07T07:35:08;3.35;;;2.42;;
44228;SDS011;29904;51.058;5.378;2023-05-07T07:37:34;4.07;;;2.20;;
44228;SDS011;29904;51.058;5.378;2023-05-07T07:40:00;5.20;;;2.60;;
44228;SDS011;29904;51.058;5.378;2023-05-07T07:42:26;4.00;;;2.10;;
44228;SDS011;29904;51.058;5.378;2023-05-07T07:44:52;3.97;;;2.17;;
44228;SDS011;29904;51.058;5.378;2023-05-07T07:47:17;4.68;;;2.33;;
44228;SDS011;29904;51.058;5.378;2023-05-07T07:49:43;5.68;;;2.13;;
44228;SDS011;29904;51.058;5.378;2023-05-07T07:52:09;5.30;;;2.10;;
44228;SDS011;29904;51.058;5.378;2023-05-07T07:54:35;4.50;;;2.38;;
44228;SDS011;29904;51.058;5.378;2023-05-07T07:57:01;3.90;;;2.30;;
44228;SDS011;29904;51.058;5.378;2023-05-07T07:59:26;4.05;;;2.10;;
44228;SDS011;29904;51.058;5.378;2023-05-07T08:01:54;3.75;;;1.80;;
44228;SDS011;29904;51.058;5.378;2023-05-07T08:04:21;4.35;;;2.00;;
44228;SDS011;29904;51.058;5.378;2023-05-07T08:06:47;3.88;;;2.17;;
44228;SDS011;29904;51.058;5.378;2023-05-07T08:09:13;3.65;;;1.90;;
44228;SDS011;29904;51.058;5.378;2023-05-07T08:11:39;3.67;;;1.90;;
44228;SDS011;29904;51.058;5.378;2023-05-07T08:14:05;5.05;;;2.00;;
44228;SDS011;29904;51.058;5.378;2023-05-07T08:16:30;4.63;;;1.70;;
44228;SDS011;29904;51.058;5.378;2023-05-07T08:18:56;3.43;;;1.80;;
44228;SDS011;29904;51.058;5.378;2023-05-07T08:21:22;4.13;;;1.90;;
44228;SDS011;29904;51.058;5.378;2023-05-07T08:23:48;3.50;;;1.77;;
44228;SDS011;29904;51.058;5.378;2023-05-07T08:26:14;3.58;;;1.80;;
44228;SDS011;29904;51.058;5.378;2023-05-07T08:28:40;4.10;;;1.83;;
44228;SDS011;29904;51.058;5.378;2023-05-07T08:31:06;4.07;;;1.90;;
44228;SDS011;29904;51.058;5.378;2023-05-07T08:33:31;3.38;;;1.70;;
44228;SDS011;29904;51.058;5.378;2023-05-07T08:35:57;4.20;;;2.03;;
44228;SDS011;29904;51.058;5.378;2023-05-07T08:38:23;4.03;;;1.88;;
44228;SDS011;29904;51.058;5.378;2023-05-07T08:40:49;4.00;;;2.10;;
44228;SDS011;29904;51.058;5.378;2023-05-07T08:43:17;3.80;;;2.10;;
44228;SDS011;29904;51.058;5.378;2023-05-07T08:45:47;4.38;;;1.65;;
44228;SDS011;29904;51.058;5.378;2023-05-07T08:48:19;3.50;;;1.65;;
44228;SDS011;29904;51.058;5.378;2023-05-07T08:50:50;4.47;;;2.07;;
44228;SDS011;29904;51.058;5.378;2023-05-07T08:53:16;4.17;;;2.10;;
44228;SDS011;29904;51.058;5.378;2023-05-07T08:55:43;4.18;;;1.90;;
44228;SDS011;29904;51.058;5.378;2023-05-07T08:58:11;2.55;;;1.65;;
44228;SDS011;29904;51.058;5.378;2023-05-07T09:00:36;3.35;;;1.85;;
44228;SDS011;29904;51.058;5.378;2023-05-07T09:03:04;4.32;;;1.80;;
44228;SDS011;29904;51.058;5.378;2023-05-07T09:05:32;3.33;;;1.60;;
44228;SDS011;29904;51.058;5.378;2023-05-07T09:08:02;2.50;;;1.80;;
44228;SDS011;29904;51.058;5.378;2023-05-07T09:10:28;2.78;;;1.60;;
44228;SDS011;29904;51.058;5.378;2023-05-07T09:12:57;4.60;;;1.70;;
44228;SDS011;29904;51.058;5.378;2023-05-07T09:15:23;3.67;;;1.90;;
44228;SDS011;29904;51.058;5.378;2023-05-07T09:17:50;3.55;;;2.10;;
44228;SDS011;29904;51.058;5.378;2023-05-07T09:20:17;3.80;;;1.90;;
44228;SDS011;29904;51.058;5.378;2023-05-07T09:22:43;3.50;;;1.98;;
44228;SDS011;29904;51.058;5.378;2023-05-07T09:25:09;4.93;;;2.50;;
44228;SDS011;29904;51.058;5.378;2023-05-07T09:27:37;4.20;;;2.20;;
44228;SDS011;29904;51.058;5.378;2023-05-07T09:30:03;5.05;;;2.70;;
44228;SDS011;29904;51.058;5.378;2023-05-07T09:32:33;4.55;;;2.72;;
44228;SDS011;29904;51.058;5.378;2023-05-07T09:35:00;4.65;;;2.72;;
44228;SDS011;29904;51.058;5.378;2023-05-07T09:37:28;4.43;;;2.70;;
44228;SDS011;29904;51.058;5.378;2023-05-07T09:39:56;5.30;;;2.35;;
44228;SDS011;29904;51.058;5.378;2023-05-07T09:42:25;4.07;;;2.33;;
44228;SDS011;29904;51.058;5.378;2023-05-07T09:44:52;4.38;;;2.40;;
44228;SDS011;29904;51.058;5.378;2023-05-07T09:47:18;7.35;;;2.70;;
44228;SDS011;29904;51.058;5.378;2023-05-07T09:49:46;4.93;;;2.40;;
44228;SDS011;29904;51.058;5.378;2023-05-07T09:52:13;4.07;;;2.28;;
44228;SDS011;29904;51.058;5.378;2023-05-07T09:54:41;6.67;;;2.03;;
44228;SDS011;29904;51.058;5.378;2023-05-07T09:57:09;6.70;;;2.13;;
44228;SDS011;29904;51.058;5.378;2023-05-07T09:59:37;4.70;;;2.67;;
44228;SDS011;29904;51.058;5.378;2023-05-07T10:02:03;7.10;;;3.27;;
44228;SDS011;29904;51.058;5.378;2023-05-07T10:04:30;4.90;;;2.55;;
44228;SDS011;29904;51.058;5.378;2023-05-07T10:06:56;4.85;;;2.40;;
44228;SDS011;29904;51.058;5.378;2023-05-07T10:09:23;4.28;;;2.70;;
44228;SDS011;29904;51.058;5.378;2023-05-07T10:11:51;5.20;;;3.30;;
44228;SDS011;29904;51.058;5.378;2023-05-07T10:14:17;4.72;;;2.67;;
44228;SDS011;29904;51.058;5.378;2023-05-07T10:16:44;4.95;;;2.17;;
44228;SDS011;29904;51.058;5.378;2023-05-07T10:19:12;4.40;;;2.20;;
44228;SDS011;29904;51.058;5.378;2023-05-07T10:21:39;5.68;;;2.30;;
44228;SDS011;29904;51.058;5.378;2023-05-07T10:24:10;3.00;;;1.92;;
44228;SDS011;29904;51.058;5.378;2023-05-07T10:26:42;4.60;;;2.17;;
44228;SDS011;29904;51.058;5.378;2023-05-07T10:34:57;5.32;;;2.35;;
44228;SDS011;29904;51.058;5.378;2023-05-07T10:37:25;5.13;;;2.72;;
44228;SDS011;29904;51.058;5.378;2023-05-07T10:39:51;4.85;;;2.22;;
44228;SDS011;29904;51.058;5.378;2023-05-07T10:42:17;6.30;;;2.93;;
44228;SDS011;29904;51.058;5.378;2023-05-07T10:44:43;4.82;;;2.10;;
44228;SDS011;29904;51.058;5.378;2023-05-07T10:47:13;5.80;;;1.97;;
44228;SDS011;29904;51.058;5.378;2023-05-07T10:54:41;6.45;;;2.90;;
44228;SDS011;29904;51.058;5.378;2023-05-07T10:57:32;9.23;;;3.90;;
44228;SDS011;29904;51.058;5.378;2023-05-07T11:00:02;4.93;;;3.20;;
44228;SDS011;29904;51.058;5.378;2023-05-07T11:05:30;5.15;;;3.13;;
44228;SDS011;29904;51.058;5.378;2023-05-07T11:07:57;5.10;;;3.50;;
44228;SDS011;29904;51.058;5.378;2023-05-07T11:13:15;5.90;;;3.67;;
44228;SDS011;29904;51.058;5.378;2023-05-07T11:15:45;6.72;;;3.95;;
44228;SDS011;29904;51.058;5.378;2023-05-07T11:18:16;6.45;;;4.47;;
44228;SDS011;29904;51.058;5.378;2023-05-07T11:26:00;6.22;;;4.05;;
44228;SDS011;29904;51.058;5.378;2023-05-07T11:28:27;6.78;;;4.20;;
44228;SDS011;29904;51.058;5.378;2023-05-07T11:30:53;6.97;;;4.70;;
44228;SDS011;29904;51.058;5.378;2023-05-07T11:33:19;7.60;;;4.13;;
44228;SDS011;29904;51.058;5.378;2023-05-07T11:35:45;5.47;;;4.20;;
44228;SDS011;29904;51.058;5.378;2023-05-07T11:38:12;7.65;;;4.35;;
44228;SDS011;29904;51.058;5.378;2023-05-07T11:40:57;7.45;;;4.00;;
44228;SDS011;29904;51.058;5.378;2023-05-07T11:43:29;8.15;;;4.47;;
44228;SDS011;29904;51.058;5.378;2023-05-07T11:46:10;9.73;;;4.32;;
44228;SDS011;29904;51.058;5.378;2023-05-07T11:48:37;8.40;;;4.50;;
44228;SDS011;29904;51.058;5.378;2023-05-07T11:51:05;7.00;;;4.70;;
44228;SDS011;29904;51.058;5.378;2023-05-07T11:53:37;8.43;;;4.90;;
44228;SDS011;29904;51.058;5.378;2023-05-07T11:58:37;8.23;;;4.50;;
44228;SDS011;29904;51.058;5.378;2023-05-07T12:01:03;7.88;;;5.00;;
44228;SDS011;29904;51.058;5.378;2023-05-07T12:03:29;7.20;;;5.10;;
44228;SDS011;29904;51.058;5.378;2023-05-07T12:05:55;8.20;;;5.07;;
44228;SDS011;29904;51.058;5.378;2023-05-07T12:08:21;9.80;;;5.25;;
44228;SDS011;29904;51.058;5.378;2023-05-07T12:10:47;8.88;;;5.45;;
44228;SDS011;29904;51.058;5.378;2023-05-07T12:13:15;9.23;;;5.10;;
44228;SDS011;29904;51.058;5.378;2023-05-07T12:15:50;8.60;;;5.68;;
44228;SDS011;29904;51.058;5.378;2023-05-07T12:18:17;8.23;;;5.40;;
44228;SDS011;29904;51.058;5.378;2023-05-07T12:20:43;9.38;;;5.40;;
44228;SDS011;29904;51.058;5.378;2023-05-07T12:23:10;10.27;;;5.68;;
44228;SDS011;29904;51.058;5.378;2023-05-07T12:25:37;9.05;;;5.53;;
44228;SDS011;29904;51.058;5.378;2023-05-07T12:28:04;10.97;;;6.27;;
44228;SDS011;29904;51.058;5.378;2023-05-07T12:30:31;9.48;;;5.70;;
44228;SDS011;29904;51.058;5.378;2023-05-07T12:33:02;8.77;;;5.83;;
44228;SDS011;29904;51.058;5.378;2023-05-07T12:35:31;8.38;;;5.10;;
44228;SDS011;29904;51.058;5.378;2023-05-07T12:38:00;9.07;;;5.40;;
44228;SDS011;29904;51.058;5.378;2023-05-07T12:40:39;8.88;;;4.95;;
44228;SDS011;29904;51.058;5.378;2023-05-07T12:43:07;7.45;;;4.43;;
44228;SDS011;29904;51.058;5.378;2023-05-07T12:45:41;6.85;;;4.15;;
44228;SDS011;29904;51.058;5.378;2023-05-07T12:48:09;6.45;;;4.10;;
44228;SDS011;29904;51.058;5.378;2023-05-07T12:50:35;6.43;;;4.13;;
44228;SDS011;29904;51.058;5.378;2023-05-07T12:53:03;6.20;;;3.70;;
44228;SDS011;29904;51.058;5.378;2023-05-07T12:55:40;5.40;;;3.58;;
44228;SDS011;29904;51.058;5.378;2023-05-07T13:00:47;7.10;;;3.55;;
44228;SDS011;29904;51.058;5.378;2023-05-07T13:03:21;5.50;;;3.25;;
44228;SDS011;29904;51.058;5.378;2023-05-07T13:05:59;5.80;;;3.10;;
44228;SDS011;29904;51.058;5.378;2023-05-07T13:08:31;4.28;;;2.47;;
44228;SDS011;29904;51.058;5.378;2023-05-07T13:11:10;6.95;;;2.65;;
44228;SDS011;29904;51.058;5.378;2023-05-07T13:13:39;5.97;;;2.60;;
44228;SDS011;29904;51.058;5.378;2023-05-07T13:16:07;5.50;;;2.90;;
44228;SDS011;29904;51.058;5.378;2023-05-07T13:18:33;6.95;;;2.72;;
44228;SDS011;29904;51.058;5.378;2023-05-07T13:21:00;6.55;;;2.72;;
44228;SDS011;29904;51.058;5.378;2023-05-07T13:23:28;3.92;;;2.17;;
44228;SDS011;29904;51.058;5.378;2023-05-07T13:25:54;3.63;;;2.10;;
44228;SDS011;29904;51.058;5.378;2023-05-07T13:28:20;3.58;;;1.98;;
44228;SDS011;29904;51.058;5.378;2023-05-07T13:30:47;4.25;;;1.88;;
44228;SDS011;29904;51.058;5.378;2023-05-07T13:33:13;5.80;;;1.70;;
44228;SDS011;29904;51.058;5.378;2023-05-07T13:35:40;4.57;;;2.17;;
44228;SDS011;29904;51.058;5.378;2023-05-07T13:38:06;5.95;;;1.90;;
44228;SDS011;29904;51.058;5.378;2023-05-07T13:40:33;4.18;;;1.90;;
44228;SDS011;29904;51.058;5.378;2023-05-07T13:42:58;4.20;;;1.67;;
44228;SDS011;29904;51.058;5.378;2023-05-07T13:45:29;4.32;;;1.60;;
44228;SDS011;29904;51.058;5.378;2023-05-07T13:47:55;3.50;;;1.70;;
44228;SDS011;29904;51.058;5.378;2023-05-07T13:50:22;2.92;;;1.30;;
44228;SDS011;29904;51.058;5.378;2023-05-07T13:52:51;3.23;;;1.40;;
44228;SDS011;29904;51.058;5.378;2023-05-07T13:55:18;3.28;;;1.30;;
44228;SDS011;29904;51.058;5.378;2023-05-07T13:57:44;3.08;;;1.50;;
44228;SDS011;29904;51.058;5.378;2023-05-07T14:00:12;3.53;;;1.23;;
44228;SDS011;29904;51.058;5.378;2023-05-07T14:02:39;3.78;;;1.20;;
44228;SDS011;29904;51.058;5.378;2023-05-07T14:05:05;4.00;;;1.50;;
44228;SDS011;29904;51.058;5.378;2023-05-07T14:07:35;4.35;;;1.85;;
44228;SDS011;29904;51.058;5.378;2023-05-07T14:10:01;4.83;;;1.83;;
44228;SDS011;29904;51.058;5.378;2023-05-07T14:12:26;6.07;;;2.00;;
44228;SDS011;29904;51.058;5.378;2023-05-07T14:14:52;3.70;;;1.60;;
44228;SDS011;29904;51.058;5.378;2023-05-07T14:17:18;2.97;;;1.10;;
44228;SDS011;29904;51.058;5.378;2023-05-07T14:19:45;4.00;;;1.30;;
44228;SDS011;29904;51.058;5.378;2023-05-07T14:22:12;2.25;;;0.90;;
44228;SDS011;29904;51.058;5.378;2023-05-07T14:24:40;3.28;;;0.82;;
44228;SDS011;29904;51.058;5.378;2023-05-07T14:27:05;1.70;;;0.90;;
44228;SDS011;29904;51.058;5.378;2023-05-07T14:29:33;2.92;;;1.40;;
44228;SDS011;29904;51.058;5.378;2023-05-07T14:32:00;3.75;;;1.30;;
44228;SDS011;29904;51.058;5.378;2023-05-07T14:34:26;4.45;;;1.38;;
44228;SDS011;29904;51.058;5.378;2023-05-07T14:36:52;3.27;;;1.30;;
44228;SDS011;29904;51.058;5.378;2023-05-07T14:39:20;2.90;;;1.30;;
44228;SDS011;29904;51.058;5.378;2023-05-07T14:41:46;4.15;;;1.60;;
44228;SDS011;29904;51.058;5.378;2023-05-07T14:44:12;3.55;;;1.30;;
44228;SDS011;29904;51.058;5.378;2023-05-07T14:46:38;3.20;;;0.80;;
44228;SDS011;29904;51.058;5.378;2023-05-07T14:49:04;2.73;;;1.00;;
44228;SDS011;29904;51.058;5.378;2023-05-07T14:51:30;4.03;;;1.10;;
44228;SDS011;29904;51.058;5.378;2023-05-07T14:53:58;2.90;;;1.10;;
44228;SDS011;29904;51.058;5.378;2023-05-07T14:56:25;3.67;;;1.00;;
44228;SDS011;29904;51.058;5.378;2023-05-07T14:58:51;2.20;;;0.93;;
44228;SDS011;29904;51.058;5.378;2023-05-07T15:01:19;3.78;;;0.90;;
44228;SDS011;29904;51.058;5.378;2023-05-07T15:03:45;3.55;;;1.00;;
44228;SDS011;29904;51.058;5.378;2023-05-07T15:06:11;2.43;;;0.90;;
44228;SDS011;29904;51.058;5.378;2023-05-07T15:08:40;2.28;;;0.73;;
44228;SDS011;29904;51.058;5.378;2023-05-07T15:11:06;3.10;;;0.98;;
44228;SDS011;29904;51.058;5.378;2023-05-07T15:13:32;3.77;;;0.90;;